Time;durP1;ratioP1;P1;durP2;ratioP2;P2;SDS_P1;SDS_P2;PMS_P1;PMS_P2;Temp;Humidity;BMP_temperature;BMP_pressure;BME280_temperature;BME280_humidity;BME280_pressure;Samples;Min_cycle;Max_cycle;Signal;HPM_P1;HPM_P2
2023/08/12 00:02:01;;;;;;;9.20;7.30;;;;;;;14.75;100.00;99652.42;109481;1252;72699;-67
2023/08/12 00:04:29;;;;;;;9.80;7.70;;;;;;;14.75;100.00;99651.30;109348;1253;60536;-68
2023/08/12 00:06:56;;;;;;;11.00;7.80;;;;;;;14.76;100.00;99649.66;109559;1252;58761;-70
2023/08/12 00:09:24;;;;;;;13.00;10.10;;;;;;;14.73;100.00;99645.59;109472;1253;72597;-70
2023/08/12 00:11:51;;;;;;;11.80;9.30;;;;;;;14.70;100.00;99647.10;109512;1253;65925;-70
2023/08/12 00:14:19;;;;;;;9.80;8.80;;;;;;;14.69;100.00;99645.36;109497;1252;74964;-69
2023/08/12 00:16:46;;;;;;;12.00;9.70;;;;;;;14.69;100.00;99643.78;109509;1253;61633;-70
2023/08/12 00:19:14;;;;;;;12.40;9.90;;;;;;;14.68;100.00;99645.96;109487;1253;60012;-69
2023/08/12 00:21:41;;;;;;;9.60;8.10;;;;;;;14.69;100.00;99644.04;109521;1252;75115;-69
2023/08/12 00:24:08;;;;;;;13.70;8.70;;;;;;;14.71;100.00;99641.33;109463;1253;66312;-69
2023/08/12 00:26:36;;;;;;;10.70;8.20;;;;;;;14.69;100.00;99641.39;109552;1252;72695;-69
2023/08/12 00:29:03;;;;;;;10.80;8.60;;;;;;;14.69;100.00;99643.21;109472;1252;60381;-69
2023/08/12 00:31:31;;;;;;;13.70;9.60;;;;;;;14.70;100.00;99639.92;109448;1252;59828;-70
2023/08/12 00:33:59;;;;;;;11.20;9.30;;;;;;;14.69;100.00;99637.16;109544;1253;74376;-68
2023/08/12 00:36:26;;;;;;;9.80;8.10;;;;;;;14.68;100.00;99639.78;109524;1252;67620;-68
2023/08/12 00:38:53;;;;;;;10.10;7.20;;;;;;;14.67;100.00;99642.25;109502;1252;72747;-70
2023/08/12 00:41:21;;;;;;;10.40;8.50;;;;;;;14.65;100.00;99638.67;109465;1253;60392;-68
2023/08/12 00:43:48;;;;;;;8.70;6.60;;;;;;;14.62;100.00;99638.41;109444;1252;58717;-69
2023/08/12 00:46:15;;;;;;;10.80;6.80;;;;;;;14.59;100.00;99639.36;109334;1253;73871;-67
2023/08/12 00:48:43;;;;;;;5.30;4.80;;;;;;;14.55;100.00;99643.57;109470;1253;67636;-71
2023/08/12 00:51:10;;;;;;;6.00;5.50;;;;;;;14.51;100.00;99641.45;109365;1253;72685;-68
2023/08/12 00:53:38;;;;;;;5.20;4.70;;;;;;;14.48;100.00;99643.23;109277;1254;59877;-69
2023/08/12 00:56:05;;;;;;;3.80;3.40;;;;;;;14.46;100.00;99645.63;109341;1253;59222;-70
2023/08/12 00:58:33;;;;;;;5.40;3.80;;;;;;;14.47;100.00;99645.89;109508;1252;72626;-68
2023/08/12 01:01:01;;;;;;;5.10;3.90;;;;;;;14.49;100.00;99644.75;109509;1254;67889;-69
2023/08/12 01:03:28;;;;;;;5.10;3.40;;;;;;;14.52;100.00;99646.84;109210;1254;72791;-69
2023/08/12 01:05:56;;;;;;;3.50;3.20;;;;;;;14.53;100.00;99651.14;109330;1252;61705;-70
2023/08/12 01:08:24;;;;;;;3.90;3.50;;;;;;;14.55;100.00;99649.79;109218;1254;59267;-70
2023/08/12 01:10:54;;;;;;;3.90;3.60;;;;;;;14.56;100.00;99649.27;109309;1252;73410;-70
2023/08/12 01:13:44;;;;;;;3.60;3.30;;;;;;;14.57;100.00;99647.77;109432;1252;152957;-70
2023/08/12 01:16:12;;;;;;;3.80;3.40;;;;;;;14.59;100.00;99648.56;109358;1252;71257;-69
2023/08/12 01:18:40;;;;;;;6.10;4.60;;;;;;;14.60;100.00;99647.96;109210;1252;61704;-69
2023/08/12 01:21:07;;;;;;;4.30;3.90;;;;;;;14.59;100.00;99645.76;109346;1252;60183;-68
2023/08/12 01:23:35;;;;;;;5.40;4.70;;;;;;;14.59;100.00;99645.18;109524;1254;72626;-68
2023/08/12 01:26:02;;;;;;;6.90;5.70;;;;;;;14.60;100.00;99644.13;109281;1254;67715;-69
2023/08/12 01:28:30;;;;;;;5.60;5.10;;;;;;;14.68;100.00;99647.08;109487;1254;71451;-69
2023/08/12 01:31:26;;;;;;;7.10;6.20;;;;;;;14.75;100.00;99646.69;109464;1256;60816;-69
2023/08/12 01:34:08;;;;;;;9.80;6.90;;;;;;;14.76;100.00;99646.61;109353;1254;58767;-69
2023/08/12 01:36:37;;;;;;;9.40;6.70;;;;;;;14.76;100.00;99642.05;109491;1252;73854;-68
2023/08/12 01:39:05;;;;;;;8.10;6.70;;;;;;;14.77;100.00;99643.81;109177;1254;66614;-68
2023/08/12 01:41:32;;;;;;;7.00;5.90;;;;;;;14.77;100.00;99644.12;109189;1253;72632;-70
2023/08/12 01:44:02;;;;;;;6.30;5.70;;;;;;;14.79;100.00;99640.86;109276;1254;61674;-68
2023/08/12 01:46:29;;;;;;;6.40;5.60;;;;;;;14.79;100.00;99640.36;109404;1253;59206;-68
2023/08/12 01:48:57;;;;;;;9.70;5.80;;;;;;;14.78;100.00;99639.38;109218;1254;73831;-68
2023/08/12 01:51:24;;;;;;;5.80;5.10;;;;;;;14.78;100.00;99640.38;109521;1252;67612;-69
2023/08/12 01:53:52;;;;;;;6.50;5.50;;;;;;;14.80;100.00;99641.24;109469;1252;72707;-69
2023/08/12 01:56:19;;;;;;;6.50;5.50;;;;;;;14.82;100.00;99639.71;109452;1257;64395;-69
2023/08/12 01:58:46;;;;;;;6.80;5.10;;;;;;;14.83;100.00;99644.07;109549;1253;60002;-69
2023/08/12 02:01:14;;;;;;;5.90;5.30;;;;;;;14.83;100.00;99640.74;109480;1254;73850;-68
2023/08/12 02:03:41;;;;;;;5.70;5.20;;;;;;;14.83;100.00;99640.44;109546;1253;66191;-69
2023/08/12 02:06:09;;;;;;;5.40;4.70;;;;;;;14.87;100.00;99643.05;109459;1257;71462;-69
2023/08/12 02:08:36;;;;;;;6.20;5.30;;;;;;;14.91;100.00;99641.21;109240;1254;61743;-69
2023/08/12 02:11:04;;;;;;;6.50;5.20;;;;;;;14.96;100.00;99641.92;109397;1254;58825;-70
2023/08/12 02:13:31;;;;;;;6.40;5.40;;;;;;;15.02;100.00;99641.46;109414;1255;73193;-70
2023/08/12 02:15:59;;;;;;;8.50;5.40;;;;;;;15.08;100.00;99641.14;109277;1253;67607;-70
2023/08/12 02:18:26;;;;;;;6.90;5.30;;;;;;;15.12;100.00;99637.05;109366;1253;72756;-68
2023/08/12 02:20:59;;;;;;;6.40;5.80;;;;;;;15.17;100.00;99633.70;109275;1254;59819;-69
2023/08/12 02:23:27;;;;;;;6.60;5.10;;;;;;;15.20;100.00;99630.42;109366;1253;60157;-69
2023/08/12 02:25:54;;;;;;;6.70;5.80;;;;;;;15.23;100.00;99630.56;109314;1253;72976;-69
2023/08/12 02:28:22;;;;;;;7.60;5.50;;;;;;;15.25;100.00;99627.29;109320;1254;69887;-71
2023/08/12 02:30:49;;;;;;;6.20;5.10;;;;;;;15.26;100.00;99625.05;109316;1253;73113;-70
2023/08/12 02:33:16;;;;;;;5.90;5.30;;;;;;;15.23;100.00;99624.34;109365;1254;61621;-70
2023/08/12 02:35:44;;;;;;;6.20;5.50;;;;;;;15.16;100.00;99627.59;109377;1254;58808;-69
2023/08/12 02:38:11;;;;;;;6.40;5.00;;;;;;;15.08;100.00;99628.61;109413;1254;73807;-71
2023/08/12 02:40:39;;;;;;;6.30;5.30;;;;;;;15.00;100.00;99634.69;109223;1254;66214;-70
2023/08/12 02:43:06;;;;;;;6.00;5.20;;;;;;;14.93;100.00;99633.68;109369;1253;72711;-69
2023/08/12 02:45:33;;;;;;;7.00;4.20;;;;;;;14.87;100.00;99632.20;109315;1254;60562;-70
2023/08/12 02:48:01;;;;;;;5.40;4.90;;;;;;;14.83;100.00;99635.67;109396;1253;60076;-69
2023/08/12 02:50:28;;;;;;;5.90;4.90;;;;;;;14.83;100.00;99634.31;109462;1253;73179;-69
2023/08/12 02:52:55;;;;;;;5.20;4.60;;;;;;;14.85;100.00;99637.05;109447;1254;66290;-70
2023/08/12 02:55:23;;;;;;;5.70;5.10;;;;;;;14.88;100.00;99638.35;109442;1254;73146;-69
2023/08/12 02:57:50;;;;;;;5.00;4.50;;;;;;;14.88;100.00;99638.10;109257;1254;61699;-69
2023/08/12 03:00:18;;;;;;;7.40;5.10;;;;;;;14.91;100.00;99637.00;109214;1253;58830;-69
2023/08/12 03:02:45;;;;;;;6.40;5.40;;;;;;;14.93;100.00;99631.23;109413;1253;73960;-70
2023/08/12 03:05:13;;;;;;;5.80;5.20;;;;;;;14.94;100.00;99631.60;109498;1254;67586;-68
2023/08/12 03:07:40;;;;;;;5.90;4.90;;;;;;;14.94;100.00;99629.73;109274;1253;72483;-70
2023/08/12 03:10:08;;;;;;;6.20;5.30;;;;;;;14.96;100.00;99629.30;109458;1252;60399;-71
2023/08/12 03:12:35;;;;;;;5.90;5.30;;;;;;;15.01;100.00;99624.27;109419;1252;58787;-68
2023/08/12 03:15:03;;;;;;;5.80;5.10;;;;;;;15.05;100.00;99624.88;109377;1254;72960;-69
2023/08/12 03:17:31;;;;;;;8.00;5.30;;;;;;;15.11;100.00;99629.45;109511;1254;66637;-69
2023/08/12 03:20:04;;;;;;;6.70;5.30;;;;;;;15.18;100.00;99625.83;109322;1252;71441;-69
2023/08/12 03:22:32;;;;;;;5.90;5.40;;;;;;;15.26;100.00;99628.59;109438;1254;60575;-70
2023/08/12 03:24:59;;;;;;;7.70;6.20;;;;;;;15.35;100.00;99634.77;109407;1253;58790;-69
2023/08/12 03:27:27;;;;;;;7.30;5.50;;;;;;;15.47;100.00;99635.71;109534;1251;72516;-68
2023/08/12 03:29:55;;;;;;;6.30;5.30;;;;;;;15.61;100.00;99634.62;109469;1253;66428;-70
2023/08/12 03:32:24;;;;;;;6.20;5.10;;;;;;;15.74;100.00;99631.91;109522;1253;71459;-68
2023/08/12 03:34:52;;;;;;;7.00;6.10;;;;;;;15.90;100.00;99627.89;109389;1253;58828;-68
2023/08/12 03:37:20;;;;;;;7.20;5.80;;;;;;;16.11;100.00;99631.23;109432;1253;59295;-68
2023/08/12 03:39:48;;;;;;;7.50;6.70;;;;;;;16.33;100.00;99635.41;109359;1252;73811;-69
2023/08/12 03:42:16;;;;;;;6.30;5.70;;;;;;;16.51;100.00;99629.34;109311;1253;66479;-69
2023/08/12 03:44:44;;;;;;;6.40;5.60;;;;;;;16.72;100.00;99627.53;109488;1253;72702;-69
2023/08/12 03:47:11;;;;;;;7.30;5.90;;;;;;;16.95;100.00;99620.20;109378;1253;60366;-70
2023/08/12 03:49:40;;;;;;;8.60;6.40;;;;;;;17.20;100.00;99620.34;109391;1253;60025;-69
2023/08/12 03:52:08;;;;;;;6.70;5.60;;;;;;;17.45;100.00;99616.44;109458;1253;72379;-70
2023/08/12 03:54:36;;;;;;;9.10;6.40;;;;;;;17.71;100.00;99614.77;109412;1254;66425;-69
2023/08/12 03:57:03;;;;;;;6.30;5.70;;;;;;;18.01;100.00;99610.88;109323;1253;72743;-69
2023/08/12 03:59:31;;;;;;;8.80;6.60;;;;;;;18.27;100.00;99606.54;109326;1252;61652;-69
2023/08/12 04:01:58;;;;;;;6.50;5.30;;;;;;;18.53;100.00;99601.02;109463;1254;58765;-68
2023/08/12 04:04:27;;;;;;;7.60;6.60;;;;;;;18.80;100.00;99600.94;109498;1252;73841;-69
2023/08/12 04:06:54;;;;;;;10.40;7.20;;;;;;;19.04;100.00;99595.73;109438;1252;66751;-69
2023/08/12 04:09:22;;;;;;;7.60;6.80;;;;;;;19.27;100.00;99592.77;109506;1253;72628;-69
2023/08/12 04:11:49;;;;;;;7.40;6.60;;;;;;;19.53;100.00;99593.38;109512;1252;60083;-68
2023/08/12 04:14:16;;;;;;;6.80;5.60;;;;;;;19.80;100.00;99594.64;109417;1253;60023;-68
2023/08/12 04:16:44;;;;;;;7.60;5.80;;;;;;;20.03;100.00;99594.46;109455;1253;73829;-68
2023/08/12 04:19:11;;;;;;;6.60;5.90;;;;;;;20.27;100.00;99593.30;109504;1252;67660;-69
2023/08/12 04:21:39;;;;;;;6.30;5.70;;;;;;;20.53;100.00;99593.17;109361;1254;73139;-69
2023/08/12 04:24:07;;;;;;;6.80;5.80;;;;;;;20.77;100.00;99592.61;109441;1253;61176;-69
2023/08/12 04:26:35;;;;;;;7.00;5.80;;;;;;;21.00;100.00;99587.04;109367;1252;58935;-69
2023/08/12 04:29:03;;;;;;;6.20;5.60;;;;;;;21.20;100.00;99585.27;109439;1253;73128;-68
2023/08/12 04:31:31;;;;;;;7.50;5.50;;;;;;;21.44;100.00;99583.69;109394;1252;67579;-69
2023/08/12 04:33:58;;;;;;;6.80;6.00;;;;;;;21.67;100.00;99586.77;109539;1253;73080;-68
2023/08/12 04:36:26;;;;;;;7.40;6.20;;;;;;;21.89;100.00;99583.89;109388;1254;59607;-67
2023/08/12 04:38:54;;;;;;;7.50;6.70;;;;;;;22.07;100.00;99582.95;109357;1253;60037;-69
2023/08/12 04:41:23;;;;;;;7.30;6.60;;;;;;;22.27;100.00;99582.88;109422;1252;73980;-68
2023/08/12 04:43:51;;;;;;;9.40;6.70;;;;;;;22.47;100.00;99580.38;109455;1252;67675;-68
2023/08/12 04:46:19;;;;;;;7.30;6.50;;;;;;;22.71;100.00;99584.60;109489;1252;72646;-69
2023/08/12 04:48:48;;;;;;;6.90;6.30;;;;;;;22.95;100.00;99588.58;109392;1253;59999;-70
2023/08/12 04:51:15;;;;;;;7.80;7.00;;;;;;;23.14;100.00;99586.76;109475;1253;58898;-68
2023/08/12 04:53:43;;;;;;;9.10;7.10;;;;;;;23.32;100.00;99579.15;109381;1252;74232;-70
2023/08/12 04:56:10;;;;;;;8.50;6.60;;;;;;;23.51;100.00;99584.65;109415;1253;67914;-70
2023/08/12 04:58:38;;;;;;;8.20;6.80;;;;;;;23.70;100.00;99588.25;109422;1252;73150;-68
2023/08/12 05:01:05;;;;;;;8.70;7.80;;;;;;;23.84;100.00;99586.05;109395;1253;58751;-70
2023/08/12 05:03:32;;;;;;;9.90;8.40;;;;;;;23.98;100.00;99587.95;109384;1254;58763;-68
2023/08/12 05:06:00;;;;;;;9.90;8.70;;;;;;;24.16;100.00;99589.38;109340;1253;73851;-70
2023/08/12 05:08:27;;;;;;;9.20;8.10;;;;;;;24.37;100.00;99590.69;109383;1254;67317;-70
2023/08/12 05:10:55;;;;;;;11.90;9.60;;;;;;;24.59;100.00;99585.81;109292;1255;72688;-70
2023/08/12 05:13:23;;;;;;;9.20;8.40;;;;;;;24.77;100.00;99587.63;109251;1254;59568;-69
2023/08/12 05:15:51;;;;;;;11.20;9.10;;;;;;;24.98;100.00;99582.37;109292;1253;61651;-67
2023/08/12 05:18:18;;;;;;;12.30;9.90;;;;;;;25.14;100.00;99583.56;109239;1253;72615;-67
2023/08/12 05:20:46;;;;;;;11.70;9.40;;;;;;;25.31;100.00;99579.52;109373;1253;67728;-69
2023/08/12 05:23:14;;;;;;;11.90;8.40;;;;;;;25.54;99.69;99578.38;109444;1253;72685;-68
2023/08/12 05:25:42;;;;;;;10.40;9.40;;;;;;;25.71;98.54;99580.46;109227;1253;60223;-67
2023/08/12 05:28:09;;;;;;;12.10;9.00;;;;;;;25.89;96.98;99580.92;109437;1253;60020;-69
2023/08/12 05:30:37;;;;;;;11.60;9.10;;;;;;;26.03;95.86;99581.20;109320;1254;73843;-67
2023/08/12 05:33:05;;;;;;;10.30;9.10;;;;;;;26.16;94.00;99581.23;109303;1253;66272;-68
2023/08/12 05:35:33;;;;;;;12.90;10.10;;;;;;;26.26;93.12;99582.14;109396;1254;71160;-68
2023/08/12 05:38:01;;;;;;;10.60;9.10;;;;;;;26.35;92.30;99580.46;109418;1253;60150;-67
2023/08/12 05:40:28;;;;;;;10.10;8.80;;;;;;;26.47;91.53;99580.91;109311;1253;59610;-69
2023/08/12 05:42:56;;;;;;;10.30;9.30;;;;;;;26.64;91.34;99580.39;109422;1253;73956;-69
2023/08/12 05:45:23;;;;;;;11.50;9.30;;;;;;;26.85;90.43;99580.09;109394;1253;66249;-69
2023/08/12 05:47:50;;;;;;;12.40;8.80;;;;;;;27.06;88.53;99587.55;109416;1253;73292;-67
2023/08/12 05:50:18;;;;;;;9.70;8.70;;;;;;;27.18;87.41;99582.41;109336;1253;59177;-68
2023/08/12 05:52:45;;;;;;;10.00;8.10;;;;;;;27.30;86.27;99588.06;109434;1253;60115;-71
2023/08/12 05:55:13;;;;;;;10.00;8.40;;;;;;;27.44;85.61;99588.33;109391;1253;72575;-67
2023/08/12 05:57:40;;;;;;;7.50;6.80;;;;;;;27.57;84.37;99590.64;109406;1253;67904;-68
2023/08/12 06:00:08;;;;;;;8.40;6.80;;;;;;;27.69;82.92;99592.23;109391;1253;71453;-69
2023/08/12 06:02:39;;;;;;;9.60;7.80;;;;;;;27.78;82.59;99593.46;109413;1254;58772;-69
2023/08/12 06:05:07;;;;;;;7.50;6.40;;;;;;;27.91;82.26;99594.70;109389;1253;60090;-69
2023/08/12 06:07:35;;;;;;;8.10;7.30;;;;;;;28.07;81.61;99594.98;109414;1254;74245;-69
2023/08/12 06:10:02;;;;;;;8.60;7.30;;;;;;;28.22;80.39;99586.37;109463;1252;66308;-71
2023/08/12 06:12:29;;;;;;;9.20;6.90;;;;;;;28.32;79.57;99587.68;109425;1253;71464;-70
2023/08/12 06:14:57;;;;;;;11.10;6.70;;;;;;;28.40;78.56;99591.23;109480;1253;60217;-69
2023/08/12 06:17:25;;;;;;;9.10;7.40;;;;;;;28.50;78.27;99589.36;109490;1252;58731;-69
2023/08/12 06:19:52;;;;;;;8.70;7.80;;;;;;;28.63;77.16;99589.56;109484;1252;74299;-72
2023/08/12 06:22:19;;;;;;;8.90;6.40;;;;;;;28.73;76.80;99588.84;109544;1253;67054;-62
2023/08/12 06:24:47;;;;;;;7.80;6.60;;;;;;;28.84;75.85;99586.02;109487;1252;73642;-66
2023/08/12 06:27:14;;;;;;;7.00;6.30;;;;;;;28.88;75.39;99586.64;109402;1254;59296;-65
2023/08/12 06:29:41;;;;;;;6.80;5.70;;;;;;;28.97;74.25;99585.61;109441;1252;60069;-63
2023/08/12 06:32:12;;;;;;;6.60;5.70;;;;;;;29.04;72.30;99586.55;109467;1253;74355;-72
2023/08/12 06:34:41;;;;;;;6.20;5.60;;;;;;;29.05;72.07;99585.20;109422;1253;66338;-68
2023/08/12 06:37:08;;;;;;;6.70;5.30;;;;;;;29.09;71.53;99589.71;109435;1252;71597;-69
2023/08/12 06:39:36;;;;;;;7.50;5.80;;;;;;;29.19;70.72;99586.80;109439;1253;60509;-66
2023/08/12 06:42:03;;;;;;;11.10;6.80;;;;;;;29.23;70.33;99592.41;109479;1252;58895;-66
2023/08/12 06:44:31;;;;;;;6.20;5.20;;;;;;;29.34;70.21;99587.14;109538;1252;72578;-66
2023/08/12 06:46:58;;;;;;;6.20;4.30;;;;;;;29.38;69.09;99581.13;109431;1252;67905;-67
2023/08/12 06:49:25;;;;;;;6.70;4.10;;;;;;;29.43;68.47;99579.32;109510;1252;72642;-64
2023/08/12 06:51:53;;;;;;;4.90;4.10;;;;;;;29.54;67.95;99571.36;109511;1252;58818;-65
2023/08/12 06:54:22;;;;;;;5.00;4.10;;;;;;;29.64;67.37;99572.89;109498;1252;58742;-67
2023/08/12 06:56:50;;;;;;;4.10;3.40;;;;;;;29.77;66.66;99573.12;109474;1252;72704;-67
2023/08/12 06:59:17;;;;;;;4.30;3.40;;;;;;;29.81;65.29;99571.38;109504;1252;66544;-67
2023/08/12 07:01:45;;;;;;;3.60;3.30;;;;;;;29.86;63.62;99572.52;109498;1252;71922;-65
2023/08/12 07:04:12;;;;;;;3.40;2.90;;;;;;;29.91;62.92;99570.37;109436;1252;60055;-65
2023/08/12 07:06:40;;;;;;;3.10;2.50;;;;;;;29.97;62.57;99573.30;109483;1252;59834;-67
2023/08/12 07:09:08;;;;;;;2.40;2.20;;;;;;;30.07;61.31;99571.86;109431;1252;73805;-63
2023/08/12 07:11:35;;;;;;;2.40;2.10;;;;;;;30.20;60.33;99568.05;109383;1252;67708;-64
2023/08/12 07:14:02;;;;;;;4.50;2.80;;;;;;;30.37;58.81;99566.17;109363;1252;73014;-68
2023/08/12 07:16:30;;;;;;;4.20;3.80;;;;;;;30.54;58.41;99567.83;109289;1252;60090;-68
2023/08/12 07:18:57;;;;;;;5.00;4.50;;;;;;;30.74;56.94;99567.39;109345;1252;60021;-68
2023/08/12 07:21:25;;;;;;;7.60;5.80;;;;;;;30.90;55.65;99563.30;109456;1252;73427;-66
2023/08/12 07:23:52;;;;;;;4.80;4.20;;;;;;;31.01;54.68;99563.61;109510;1252;67791;-66
2023/08/12 07:26:30;;;;;;;5.00;3.90;;;;;;;31.08;52.73;99556.05;109409;1252;71461;-64
2023/08/12 07:28:58;;;;;;;5.40;4.00;;;;;;;31.06;51.11;99558.19;109476;1252;60068;-62
2023/08/12 07:31:25;;;;;;;7.80;5.30;;;;;;;31.00;50.31;99554.33;109477;1252;58790;-65
2023/08/12 07:33:53;;;;;;;5.90;4.30;;;;;;;30.96;50.39;99555.73;109476;1252;73828;-64
2023/08/12 07:36:20;;;;;;;4.60;3.30;;;;;;;31.01;49.55;99551.08;109497;1252;66179;-64
2023/08/12 07:38:47;;;;;;;4.90;3.10;;;;;;;31.09;48.68;99550.27;109525;1252;71424;-67
2023/08/12 07:41:15;;;;;;;6.80;5.00;;;;;;;31.29;48.06;99547.05;109542;1252;60049;-66
2023/08/12 07:43:42;;;;;;;6.20;4.60;;;;;;;31.44;47.28;99546.09;109488;1252;58507;-66
2023/08/12 07:46:10;;;;;;;8.90;4.40;;;;;;;31.65;47.04;99547.39;109437;1252;74082;-65
2023/08/12 07:48:38;;;;;;;4.70;3.80;;;;;;;31.92;45.56;99548.09;109457;1253;66313;-67
2023/08/12 07:51:05;;;;;;;4.20;3.30;;;;;;;31.98;44.10;99545.96;109491;1252;74363;-67
2023/08/12 07:53:33;;;;;;;3.00;2.50;;;;;;;31.96;43.62;99543.85;109447;1253;60070;-68
2023/08/12 07:56:00;;;;;;;3.90;3.30;;;;;;;31.94;43.86;99543.25;109455;1252;60028;-67
2023/08/12 07:58:28;;;;;;;6.60;3.70;;;;;;;31.99;43.32;99543.09;109351;1252;72614;-66
2023/08/12 08:00:55;;;;;;;3.20;2.50;;;;;;;31.99;42.55;99547.48;109347;1253;65908;-63
2023/08/12 08:03:23;;;;;;;2.50;2.00;;;;;;;32.02;42.47;99543.59;109490;1252;73179;-65
2023/08/12 08:05:50;;;;;;;3.30;2.00;;;;;;;32.13;41.88;99545.91;109486;1252;58728;-67
2023/08/12 08:08:19;;;;;;;2.70;1.80;;;;;;;32.17;40.84;99544.78;109432;1252;60075;-65
2023/08/12 08:10:46;;;;;;;2.40;1.40;;;;;;;32.08;40.73;99541.80;109445;1253;73818;-65
2023/08/12 08:13:14;;;;;;;3.50;1.90;;;;;;;32.10;40.76;99544.95;109499;1252;67529;-66
2023/08/12 08:15:41;;;;;;;2.30;1.60;;;;;;;32.10;40.48;99542.04;109392;1252;72676;-65
2023/08/12 08:18:09;;;;;;;2.30;1.20;;;;;;;32.16;40.65;99541.45;109637;1253;58849;-66
2023/08/12 08:20:36;;;;;;;1.70;1.40;;;;;;;32.18;40.55;99539.85;109545;1252;60480;-66
2023/08/12 08:23:04;;;;;;;2.10;1.40;;;;;;;32.20;40.38;99534.30;109516;1253;73343;-64
2023/08/12 08:25:32;;;;;;;2.80;1.80;;;;;;;32.25;40.49;99532.09;109415;1251;67573;-65
2023/08/12 08:27:59;;;;;;;1.30;1.20;;;;;;;32.35;40.07;99530.38;109388;1253;71361;-65
2023/08/12 08:30:26;;;;;;;1.70;1.60;;;;;;;32.33;39.34;99527.27;109465;1252;58824;-66
2023/08/12 08:32:54;;;;;;;1.50;1.40;;;;;;;32.17;39.02;99532.45;109411;1252;58579;-63
2023/08/12 08:35:21;;;;;;;1.60;1.30;;;;;;;32.16;39.11;99525.33;109502;1252;73867;-64
2023/08/12 08:37:49;;;;;;;2.00;1.30;;;;;;;32.18;38.76;99527.86;109445;1252;66429;-69
2023/08/12 08:40:16;;;;;;;1.90;1.70;;;;;;;32.03;38.40;99533.77;109452;1252;72729;-64
2023/08/12 08:42:46;;;;;;;3.30;1.60;;;;;;;31.90;38.92;99534.54;109488;1252;59269;-64
2023/08/12 08:45:14;;;;;;;3.10;1.50;;;;;;;31.89;38.49;99536.04;109467;1253;58775;-65
2023/08/12 08:47:42;;;;;;;1.70;1.40;;;;;;;31.63;37.91;99538.95;109405;1253;73903;-67
2023/08/12 08:50:10;;;;;;;1.40;1.30;;;;;;;31.55;38.30;99535.98;109443;1252;66926;-66
2023/08/12 08:52:38;;;;;;;2.00;1.70;;;;;;;31.68;38.43;99540.78;109458;1252;71479;-66
2023/08/12 08:55:05;;;;;;;2.40;1.50;;;;;;;31.71;38.57;99535.77;109346;1252;59887;-65
2023/08/12 08:57:35;;;;;;;2.50;1.50;;;;;;;31.66;38.91;99533.29;109465;1253;58719;-65
2023/08/12 09:00:10;;;;;;;2.90;1.30;;;;;;;31.62;39.05;99534.73;109410;1252;72629;-61
2023/08/12 09:02:41;;;;;;;3.40;2.00;;;;;;;31.76;38.19;99536.83;109520;1252;67966;-61
2023/08/12 09:05:08;;;;;;;2.30;1.60;;;;;;;31.70;37.80;99534.56;109440;1252;71801;-62
2023/08/12 09:07:36;;;;;;;1.80;1.30;;;;;;;31.67;38.25;99535.52;109371;1253;58762;-61
2023/08/12 09:10:03;;;;;;;6.40;1.20;;;;;;;31.78;37.46;99536.70;109408;1252;58801;-61
2023/08/12 09:12:32;;;;;;;2.80;1.40;;;;;;;31.90;36.62;99535.19;109287;1252;73943;-62
2023/08/12 09:14:59;;;;;;;1.40;1.30;;;;;;;32.19;37.01;99532.95;109452;1252;66327;-61
2023/08/12 09:17:27;;;;;;;1.80;0.90;;;;;;;32.55;36.12;99526.66;109438;1252;72703;-62
2023/08/12 09:19:55;;;;;;;1.40;1.30;;;;;;;32.69;34.59;99528.84;109409;1252;60073;-60
2023/08/12 09:22:24;;;;;;;3.90;1.20;;;;;;;32.58;34.25;99533.14;109410;1252;62590;-60
2023/08/12 09:24:57;;;;;;;2.80;1.30;;;;;;;32.61;34.78;99530.66;109558;1252;76988;-61
2023/08/12 09:27:25;;;;;;;3.00;1.20;;;;;;;32.90;34.15;99527.15;109499;1252;66381;-63
2023/08/12 09:29:56;;;;;;;3.60;1.30;;;;;;;32.99;32.83;99528.17;109456;1252;73994;-61
2023/08/12 09:32:23;;;;;;;2.20;1.40;;;;;;;33.07;32.62;99534.42;109509;1252;60065;-62
2023/08/12 09:34:52;;;;;;;1.70;1.50;;;;;;;33.20;32.76;99535.02;109492;1252;60032;-62
2023/08/12 09:37:20;;;;;;;1.50;1.20;;;;;;;33.34;32.54;99523.55;109392;1252;73878;-61
2023/08/12 09:39:48;;;;;;;1.60;1.40;;;;;;;33.41;32.53;99524.98;109559;1252;67622;-60
2023/08/12 09:42:16;;;;;;;2.60;1.30;;;;;;;33.39;31.76;99522.09;109452;1252;71781;-61
2023/08/12 09:44:43;;;;;;;3.40;1.30;;;;;;;33.33;31.28;99520.25;109468;1252;58784;-63
2023/08/12 09:47:11;;;;;;;1.50;1.30;;;;;;;33.42;30.88;99519.24;109452;1252;58718;-64
2023/08/12 09:49:38;;;;;;;2.60;1.40;;;;;;;32.92;31.13;99524.29;109453;1252;73889;-64
2023/08/12 09:52:06;;;;;;;1.90;1.20;;;;;;;32.35;32.05;99521.33;109279;1252;67615;-61
2023/08/12 09:54:34;;;;;;;1.40;1.30;;;;;;;32.46;32.45;99521.65;109357;1253;71476;-67
2023/08/12 09:57:03;;;;;;;3.50;1.30;;;;;;;32.79;32.73;99520.92;109467;1252;60098;-61
2023/08/12 09:59:32;;;;;;;2.10;1.20;;;;;;;33.32;32.28;99514.10;109457;1252;59343;-64
2023/08/12 10:01:59;;;;;;;1.90;1.40;;;;;;;33.65;31.25;99516.45;109463;1252;74306;-66
2023/08/12 10:04:28;;;;;;;2.60;1.20;;;;;;;33.81;30.88;99518.95;109454;1252;67732;-67
2023/08/12 10:06:55;;;;;;;1.20;1.10;;;;;;;34.02;30.77;99517.23;109535;1253;71615;-65
2023/08/12 10:09:23;;;;;;;2.50;1.20;;;;;;;34.33;30.51;99517.23;109430;1252;60053;-69
2023/08/12 10:11:52;;;;;;;1.90;1.50;;;;;;;34.48;30.00;99514.55;109490;1252;59619;-68
2023/08/12 10:14:19;;;;;;;3.70;1.30;;;;;;;34.11;29.39;99515.02;109346;1252;73938;-68
2023/08/12 10:16:47;;;;;;;1.80;1.30;;;;;;;33.03;29.68;99517.73;109410;1252;65723;-67
2023/08/12 10:19:15;;;;;;;4.00;1.40;;;;;;;31.87;30.81;99521.89;109422;1251;72629;-69
2023/08/12 10:21:42;;;;;;;1.80;1.10;;;;;;;31.17;32.28;99518.20;109286;1253;60078;-68
2023/08/12 10:24:10;;;;;;;1.90;1.50;;;;;;;30.68;33.04;99515.94;109219;1252;58781;-69
2023/08/12 10:26:40;;;;;;;5.10;1.80;;;;;;;30.01;34.39;99519.98;109343;1253;73416;-67
2023/08/12 10:29:07;;;;;;;2.70;2.10;;;;;;;29.27;35.54;99518.81;109445;1252;67647;-69
2023/08/12 10:31:35;;;;;;;2.70;2.30;;;;;;;28.62;37.21;99521.48;109487;1252;71485;-69
2023/08/12 10:34:03;;;;;;;2.70;2.00;;;;;;;28.07;38.37;99523.60;109315;1253;58815;-68
2023/08/12 10:36:31;;;;;;;4.60;1.80;;;;;;;27.63;40.02;99525.98;109282;1253;59354;-68
2023/08/12 10:38:58;;;;;;;5.10;1.90;;;;;;;27.37;41.75;99526.98;109405;1252;73078;-69
2023/08/12 10:41:27;;;;;;;2.50;1.40;;;;;;;27.20;42.95;99524.95;109446;1253;66318;-65
2023/08/12 10:43:59;;;;;;;2.70;1.50;;;;;;;27.00;43.09;99520.84;109430;1252;71443;-67
2023/08/12 10:46:35;;;;;;;3.30;1.20;;;;;;;26.83;44.21;99519.99;109409;1252;60529;-71
2023/08/12 10:49:03;;;;;;;4.30;1.80;;;;;;;26.85;45.36;99515.46;109508;1252;58742;-69
2023/08/12 10:51:40;;;;;;;2.20;1.40;;;;;;;26.91;45.19;99516.92;109513;1252;72416;-68
2023/08/12 10:54:14;;;;;;;2.30;1.50;;;;;;;26.91;44.80;99514.79;109561;1252;66611;-67
2023/08/12 10:57:13;;;;;;;2.10;1.20;;;;;;;26.97;43.99;99514.67;109491;1253;72667;-69
2023/08/12 10:59:53;;;;;;;2.00;1.50;;;;;;;27.05;43.62;99515.05;109524;1251;59191;-71
2023/08/12 11:02:36;;;;;;;1.80;1.50;;;;;;;27.09;44.46;99516.13;109577;1252;58811;-71
2023/08/12 11:05:07;;;;;;;1.60;1.20;;;;;;;27.25;45.21;99513.52;109461;1252;72498;-67
2023/08/12 11:07:39;;;;;;;4.30;1.30;;;;;;;27.32;45.38;99513.49;109316;1252;69958;-70
2023/08/12 11:10:14;;;;;;;1.80;1.40;;;;;;;27.25;45.86;99511.88;109232;1252;73313;-69
2023/08/12 11:12:49;;;;;;;1.80;1.10;;;;;;;27.08;45.67;99512.20;109206;1253;60239;-68
2023/08/12 11:29:45;;;;;;;1.80;1.20;;;;;;;26.25;50.78;99506.35;109320;1252;71144;-59
2023/08/12 11:32:13;;;;;;;2.90;1.30;;;;;;;26.29;49.62;99505.64;109334;1252;60053;-60
2023/08/12 11:34:41;;;;;;;1.80;1.40;;;;;;;26.32;50.29;99507.50;109339;1252;60149;-60
2023/08/12 11:37:09;;;;;;;4.00;1.30;;;;;;;26.29;50.01;99507.82;109370;1252;73794;-60
2023/08/12 11:39:37;;;;;;;2.90;1.50;;;;;;;26.22;51.42;99506.01;109311;1252;68059;-61